Westchester, Illinois
Current Conditions -  °F | °C
As of 11:53 AM on Wednesday 28 Jan 2015 (Local Time) from KMDW Reporting Station
Broken Clouds Broken Clouds  
Wind Chill: 23°   Ceiling: 25000
Heat Index: 33°   Visibility: 10mi
Dew Point: 16°   Wind: 16mph
Humidity: 50%   Direction: 160°SSE
Pressure: 30.2"   Gusts: 21mph
Location:  41.86°N, 87.88°W
Report Text: KMDW 281753Z 16014G18KT 10SM BKN250 01/M09 A3020 RMK AO2 SLP240 T00061089 10011 21044 58024
Loading
Personal Weather Stations






























Interactive Weather Map New forecast layout! Learn more

10-Day Weather Forecast

Advertisements
Track Severe Weather on mobile